createdAt,value
2022-10-14T00:00:42.801Z,100663.72
2022-10-14T00:03:09.398Z,100670.13
2022-10-14T00:05:40.577Z,100663.41
2022-10-14T00:08:09.653Z,100656.88
2022-10-14T00:10:39.738Z,100658.50
2022-10-14T00:13:06.780Z,100659.34
2022-10-14T00:15:40.700Z,100661.59
2022-10-14T00:18:09.644Z,100671.25
2022-10-14T00:20:36.594Z,100668.81
2022-10-14T00:23:03.538Z,100666.34
2022-10-14T00:25:30.510Z,100656.03
2022-10-14T00:27:57.055Z,100651.97
2022-10-14T00:30:23.722Z,100652.78
2022-10-14T00:32:50.409Z,100656.03
2022-10-14T00:35:17.190Z,100652.94
2022-10-14T00:37:43.921Z,100647.22
2022-10-14T00:40:10.993Z,100637.59
2022-10-14T00:42:37.546Z,100633.63
2022-10-14T00:45:19.839Z,100622.88
2022-10-14T00:47:50.055Z,100619.25
2022-10-14T00:50:17.408Z,100616.47
2022-10-14T00:52:45.184Z,100622.88
2022-10-14T00:55:19.245Z,100615.34
2022-10-14T00:57:46.288Z,100623.22
2022-10-14T01:00:16.387Z,100604.88
2022-10-14T01:02:43.171Z,100616.00
2022-10-14T01:05:13.318Z,100619.25
2022-10-14T01:07:48.968Z,100618.13
2022-10-14T01:10:31.175Z,100609.63
2022-10-14T01:13:11.020Z,100618.78
2022-10-14T01:15:49.914Z,100608.78
2022-10-14T01:18:47.083Z,100609.63
2022-10-14T01:21:22.499Z,100600.97
2022-10-14T01:24:17.275Z,100600.47
2022-10-14T01:27:17.915Z,100587.72
2022-10-14T01:30:23.118Z,100587.72
2022-10-14T01:32:55.187Z,100583.78
2022-10-14T01:35:41.819Z,100588.88
2022-10-14T01:38:16.922Z,100586.56
2022-10-14T01:41:00.503Z,100575.44
2022-10-14T01:43:31.107Z,100577.75
2022-10-14T01:46:00.553Z,100568.28
2022-10-14T01:48:29.261Z,100566.63
2022-10-14T01:50:59.256Z,100558.28
2022-10-14T01:53:32.141Z,100565.50
2022-10-14T01:56:02.147Z,100561.06
2022-10-14T01:58:33.920Z,100561.06
2022-10-14T02:01:06.334Z,100559.41
2022-10-14T02:03:44.151Z,100569.41
2022-10-14T02:06:39.133Z,100565.81
2022-10-14T02:09:19.096Z,100566.63
2022-10-14T02:12:03.186Z,100571.38
2022-10-14T02:14:44.250Z,100564.97
2022-10-14T02:17:25.530Z,100563.84
2022-10-14T02:20:04.606Z,100559.41
2022-10-14T02:22:39.252Z,100553.88
2022-10-14T02:25:15.872Z,100559.41
2022-10-14T02:27:45.514Z,100553.88
2022-10-14T02:30:13.141Z,100546.03
2022-10-14T02:32:41.603Z,100539.97
2022-10-14T02:35:14.903Z,100541.91
2022-10-14T02:37:42.108Z,100544.38
2022-10-14T02:40:17.868Z,100535.22
2022-10-14T02:42:44.451Z,100538.00
2022-10-14T02:45:13.157Z,100539.66
2022-10-14T02:47:40.258Z,100537.69
2022-10-14T02:50:07.604Z,100536.53
2022-10-14T02:52:34.361Z,100537.19
2022-10-14T02:55:01.151Z,100531.63
2022-10-14T02:57:28.130Z,100525.75
2022-10-14T02:59:56.817Z,100519.38
2022-10-14T03:02:24.849Z,100522.81
2022-10-14T03:04:51.630Z,100522.81
2022-10-14T03:07:18.427Z,100517.25
2022-10-14T03:09:49.096Z,100506.13
2022-10-14T03:12:17.248Z,100507.44
2022-10-14T03:14:44.729Z,100500.22
2022-10-14T03:17:14.701Z,100503.81
2022-10-14T03:19:43.637Z,100495.84
2022-10-14T03:22:12.726Z,100495.00
2022-10-14T03:24:40.569Z,100488.63
2022-10-14T03:27:27.485Z,100487.97
2022-10-14T03:29:59.854Z,100488.78
2022-10-14T03:32:26.714Z,100483.22
2022-10-14T03:35:28.500Z,100474.88
2022-10-14T03:37:56.608Z,100475.22
2022-10-14T03:40:30.716Z,100487.16
2022-10-14T03:43:01.199Z,100468.84
2022-10-14T03:45:35.549Z,100474.41
2022-10-14T03:48:03.774Z,100461.31
2022-10-14T03:50:30.642Z,100460.03
2022-10-14T03:52:57.686Z,100465.56
2022-10-14T03:55:34.419Z,100457.06
2022-10-14T03:58:02.754Z,100459.34
2022-10-14T04:00:30.875Z,100464.91
2022-10-14T04:03:15.251Z,100462.94
2022-10-14T04:05:43.626Z,100453.66
2022-10-14T04:08:15.805Z,100456.09
2022-10-14T04:10:53.662Z,100452.97
2022-10-14T04:13:20.683Z,100454.97
2022-10-14T04:15:47.590Z,100463.97
2022-10-14T04:18:21.105Z,100463.56
2022-10-14T04:20:49.413Z,100463.88
2022-10-14T04:23:18.612Z,100461.06
2022-10-14T04:25:48.898Z,100460.44
2022-10-14T04:28:16.164Z,100454.09
2022-10-14T04:30:57.358Z,100457.88
2022-10-14T04:33:28.864Z,100453.47
2022-10-14T04:36:04.387Z,100460.53
2022-10-14T04:38:35.751Z,100457.59
2022-10-14T04:41:06.508Z,100460.03
2022-10-14T04:43:34.409Z,100453.16
2022-10-14T04:46:15.603Z,100452.84
2022-10-14T04:48:42.246Z,100451.19
2022-10-14T04:51:09.736Z,100442.41
2022-10-14T04:53:53.344Z,100443.22
2022-10-14T04:56:33.887Z,100433.56
2022-10-14T04:59:03.159Z,100439.63
2022-10-14T05:01:48.379Z,100431.28
2022-10-14T05:04:15.809Z,100429.63
2022-10-14T05:06:44.903Z,100433.25
2022-10-14T05:09:14.476Z,100430.47
2022-10-14T05:11:41.257Z,100428.00
2022-10-14T05:14:07.845Z,100430.09
2022-10-14T05:16:36.802Z,100423.25
2022-10-14T05:19:03.741Z,100428.00
2022-10-14T05:21:32.215Z,100420.81
2022-10-14T05:24:21.393Z,100419.66
2022-10-14T05:26:49.099Z,100419.19
2022-10-14T05:29:16.004Z,100419.19
2022-10-14T05:31:42.600Z,100419.19
2022-10-14T05:34:47.726Z,100406.47
2022-10-14T05:37:24.816Z,100404.16
2022-10-14T05:39:52.967Z,100403.34
2022-10-14T05:42:23.497Z,100401.69
2022-10-14T05:44:53.459Z,100399.72
2022-10-14T05:47:20.478Z,100397.63
2022-10-14T05:49:51.387Z,100400.91
2022-10-14T05:52:19.077Z,100385.38
2022-10-14T05:54:45.871Z,100384.22
2022-10-14T05:57:17.603Z,100387.00
2022-10-14T05:59:44.192Z,100381.09
2022-10-14T06:02:12.372Z,100383.41
2022-10-14T06:04:42.695Z,100385.00
2022-10-14T06:07:10.433Z,100377.50
2022-10-14T06:09:38.832Z,100376.34
2022-10-14T06:12:05.999Z,100373.91
2022-10-14T06:14:33.353Z,100371.47
2022-10-14T06:17:00.650Z,100363.59
2022-10-14T06:19:27.428Z,100368.34
2022-10-14T06:21:54.902Z,100366.72
2022-10-14T06:24:21.764Z,100369.16
2022-10-14T06:26:48.629Z,100361.50
2022-10-14T06:29:16.099Z,100364.78
2022-10-14T06:31:43.379Z,100363.13
2022-10-14T06:34:09.990Z,100362.00
2022-10-14T06:36:37.045Z,100361.66
2022-10-14T06:39:05.086Z,100358.03
2022-10-14T06:41:32.824Z,100353.66
2022-10-14T06:43:59.523Z,100360.34
2022-10-14T06:46:26.213Z,100350.88
2022-10-14T06:48:52.879Z,100343.69
2022-10-14T06:51:19.488Z,100349.25
2022-10-14T06:53:46.094Z,100339.25
2022-10-14T06:56:12.744Z,100347.59
2022-10-14T06:58:39.565Z,100336.81
2022-10-14T07:01:07.751Z,100334.88
2022-10-14T07:03:36.678Z,100336.47
2022-10-14T07:06:05.162Z,100329.31
2022-10-14T07:08:32.332Z,100326.53
2022-10-14T07:10:58.912Z,100327.81
2022-10-14T07:13:25.551Z,100333.38
2022-10-14T07:15:52.427Z,100329.31
2022-10-14T07:18:19.422Z,100326.00
2022-10-14T07:20:46.754Z,100332.09
2022-10-14T07:23:13.840Z,100321.75
2022-10-14T07:25:40.452Z,100316.16
2022-10-14T07:28:07.378Z,100323.66
2022-10-14T07:30:34.360Z,100330.13
2022-10-14T07:33:01.118Z,100327.41
2022-10-14T07:35:28.116Z,100325.00
2022-10-14T07:37:55.464Z,100328.44
2022-10-14T07:40:22.546Z,100328.75
2022-10-14T07:42:49.363Z,100335.13
2022-10-14T07:45:18.327Z,100336.28
2022-10-14T07:47:47.759Z,100333.50
2022-10-14T07:50:14.268Z,100337.25
2022-10-14T07:52:40.775Z,100336.28
2022-10-14T07:55:07.903Z,100334.19
2022-10-14T07:57:34.650Z,100334.31
2022-10-14T08:00:01.513Z,100323.34
2022-10-14T08:02:38.628Z,100320.78
2022-10-14T08:05:33.043Z,100317.66
2022-10-14T08:07:52.567Z,100325.66
2022-10-14T08:10:19.336Z,100327.63
2022-10-14T08:12:46.288Z,100318.94
2022-10-14T08:15:12.941Z,100317.66
2022-10-14T08:17:39.791Z,100320.78
2022-10-14T08:20:07.000Z,100311.41
2022-10-14T08:22:33.703Z,100316.16
2022-10-14T08:25:00.304Z,100328.91
2022-10-14T08:27:26.909Z,100316.16
2022-10-14T08:29:54.582Z,100321.72
2022-10-14T08:32:23.471Z,100309.00
2022-10-14T08:34:50.548Z,100316.97
2022-10-14T08:37:17.054Z,100313.38
2022-10-14T08:39:43.933Z,100314.88
2022-10-14T08:42:29.480Z,100310.59
2022-10-14T08:45:09.040Z,100308.78
2022-10-14T08:47:45.958Z,100305.53
2022-10-14T08:50:43.551Z,100307.50
2022-10-14T08:53:28.331Z,100299.47
2022-10-14T08:56:00.467Z,100301.13
2022-10-14T08:58:47.364Z,100298.34
2022-10-14T09:01:23.010Z,100305.84
2022-10-14T09:03:52.885Z,100309.47
2022-10-14T09:06:31.932Z,100304.72
2022-10-14T09:09:16.568Z,100299.47
2022-10-14T09:11:48.719Z,100301.13
2022-10-14T09:14:29.311Z,100300.44
2022-10-14T09:17:06.427Z,100303.22
2022-10-14T09:19:38.477Z,100298.81
2022-10-14T09:22:13.341Z,100291.63
2022-10-14T09:24:41.814Z,100293.75
2022-10-14T09:27:23.757Z,100298.13
2022-10-14T09:29:54.659Z,100287.00
2022-10-14T09:32:35.473Z,100294.41
2022-10-14T09:35:02.693Z,100292.09
2022-10-14T09:37:34.942Z,100296.63
2022-10-14T09:40:10.671Z,100295.84
2022-10-14T09:42:51.730Z,100290.28
2022-10-14T09:45:22.724Z,100289.78
2022-10-14T09:47:56.242Z,100290.97
2022-10-14T09:50:27.850Z,100281.47
2022-10-14T09:53:10.909Z,100283.75
2022-10-14T09:55:46.838Z,100281.00
2022-10-14T09:58:17.848Z,100272.66
2022-10-14T10:00:46.332Z,100270.34
2022-10-14T10:03:32.512Z,100270.47
2022-10-14T10:06:10.750Z,100268.84
2022-10-14T10:08:41.324Z,100268.53
2022-10-14T10:11:13.783Z,100260.19
2022-10-14T10:13:46.824Z,100262.50
2022-10-14T10:16:39.917Z,100254.63
2022-10-14T10:19:29.311Z,100254.88
2022-10-14T10:22:15.036Z,100247.41
2022-10-14T10:24:41.822Z,100253.13
2022-10-14T10:27:29.169Z,100252.31
2022-10-14T10:29:56.274Z,100249.06
2022-10-14T10:32:43.420Z,100244.31
2022-10-14T10:35:28.130Z,100245.94
2022-10-14T10:38:13.771Z,100244.66
2022-10-14T10:41:00.142Z,100242.34
2022-10-14T10:43:26.961Z,100231.72
2022-10-14T10:45:59.591Z,100238.41
2022-10-14T10:48:39.987Z,100242.81
2022-10-14T10:51:12.743Z,100238.88
2022-10-14T10:54:01.396Z,100237.41
2022-10-14T12:06:34.458Z,100184.00
2022-10-14T12:09:08.862Z,100176.84
2022-10-14T12:11:41.510Z,100167.69
2022-10-14T12:14:20.050Z,100170.19
2022-10-14T12:16:48.690Z,100174.63
2022-10-14T12:19:29.539Z,100165.91
2022-10-14T12:22:09.336Z,100169.72
2022-10-14T12:24:48.120Z,100171.00
2022-10-14T12:27:15.798Z,100162.69
2022-10-14T12:29:52.684Z,100152.69
2022-10-14T12:32:27.294Z,100150.88
2022-10-14T12:34:55.569Z,100147.63
2022-10-14T12:37:28.821Z,100139.75
2022-10-14T12:40:05.726Z,100140.72
2022-10-14T12:42:44.578Z,100141.63
2022-10-14T12:45:26.198Z,100146.94
2022-10-14T12:48:19.240Z,100150.88
2022-10-14T12:50:48.532Z,100148.91
2022-10-14T12:53:18.101Z,100137.56
2022-10-14T12:55:49.346Z,100131.09
2022-10-14T12:58:24.785Z,100142.31
2022-10-14T13:01:07.244Z,100121.03
2022-10-14T13:03:43.985Z,100124.63
2022-10-14T13:06:31.086Z,100124.13
2022-10-14T13:09:31.898Z,100124.03
2022-10-14T13:11:58.627Z,100115.69
2022-10-14T13:14:35.476Z,100112.53
2022-10-14T13:17:04.195Z,100116.16
2022-10-14T13:19:33.526Z,100115.00
2022-10-14T13:22:05.595Z,100114.31
2022-10-14T13:24:44.129Z,100106.97
2022-10-14T13:27:22.806Z,100105.97
2022-10-14T13:29:52.502Z,100111.53
2022-10-14T13:32:40.131Z,100112.00
2022-10-14T13:35:30.894Z,100102.47
2022-10-14T13:38:00.645Z,100103.66
2022-10-14T13:40:36.585Z,100093.44
2022-10-14T13:43:15.078Z,100092.16
2022-10-14T13:45:45.386Z,100089.38
2022-10-14T13:48:41.186Z,100100.66
2022-10-14T13:51:24.666Z,100098.81
2022-10-14T13:54:20.587Z,100088.69
2022-10-14T13:57:38.384Z,100101.09
2022-10-14T14:02:44.585Z,100093.69
2022-10-14T14:05:19.883Z,100080.94
2022-10-14T14:08:34.926Z,100078.16
2022-10-14T14:10:51.410Z,100073.78
2022-10-14T14:13:24.718Z,100073.19
2022-10-14T14:15:53.449Z,100066.72
2022-10-14T14:18:49.314Z,100078.28
2022-10-14T14:21:26.577Z,100070.78
2022-10-14T14:23:55.935Z,100073.56
2022-10-14T14:26:28.743Z,100074.81
2022-10-14T14:28:55.353Z,100065.22
2022-10-14T14:31:30.318Z,100059.28
2022-10-14T14:34:04.747Z,100058.00
2022-10-14T14:36:50.075Z,100057.81
2022-10-14T14:39:26.579Z,100055.47
2022-10-14T14:41:55.870Z,100046.66
2022-10-14T14:44:26.652Z,100051.22
2022-10-14T14:46:58.062Z,100045.84
2022-10-14T14:49:35.668Z,100052.94
2022-10-14T14:52:03.817Z,100058.00
2022-10-14T14:54:31.149Z,100057.31
2022-10-14T14:56:57.872Z,100059.44
2022-10-14T14:59:36.344Z,100054.81
2022-10-14T15:02:21.113Z,100059.22
2022-10-14T15:05:00.257Z,100045.50
2022-10-14T15:07:28.003Z,100050.88
2022-10-14T15:09:57.854Z,100044.13
2022-10-14T15:12:28.187Z,100044.13
2022-10-14T15:14:59.640Z,100051.31
2022-10-14T15:17:34.376Z,100044.34
2022-10-14T15:20:29.116Z,100031.59
2022-10-14T15:22:55.971Z,100041.09
2022-10-14T15:25:29.303Z,100046.44
2022-10-14T15:28:00.611Z,100042.94
2022-10-14T15:30:39.135Z,100050.13
2022-10-14T15:33:16.469Z,100043.75
2022-10-14T15:35:45.412Z,100037.59
2022-10-14T15:38:16.283Z,100032.00
2022-10-14T15:40:43.677Z,100025.75
2022-10-14T15:43:17.719Z,100025.41
2022-10-14T15:46:08.340Z,100019.72
2022-10-14T15:48:35.285Z,100026.00
2022-10-14T15:51:02.076Z,100022.97
2022-10-14T15:53:29.518Z,100028.06
2022-10-14T15:55:56.101Z,100038.41
2022-10-14T15:58:22.666Z,100036.19
2022-10-14T16:00:49.394Z,100022.13
2022-10-14T16:03:17.690Z,100022.50
2022-10-14T16:05:44.358Z,100018.91
2022-10-14T16:08:14.735Z,100011.09
2022-10-14T16:10:45.670Z,100009.84
2022-10-14T16:13:13.129Z,100008.25
2022-10-14T16:15:42.477Z,100005.31
2022-10-14T16:18:09.100Z,100006.81
2022-10-14T16:20:35.892Z,99994.25
2022-10-14T16:23:04.574Z,100002.69
2022-10-14T16:25:39.992Z,100008.75
2022-10-14T16:28:09.964Z,100008.19
2022-10-14T16:30:44.210Z,100014.00
2022-10-14T16:35:43.308Z,100019.28
2022-10-14T16:38:13.160Z,100014.41
2022-10-14T16:40:39.813Z,100016.72
2022-10-14T16:43:06.568Z,100015.56
2022-10-14T16:45:33.347Z,100004.69
2022-10-14T16:48:00.125Z,100004.19
2022-10-14T16:50:26.866Z,100002.13
2022-10-14T16:53:12.359Z,100004.44
2022-10-14T16:55:39.352Z,100001.22
2022-10-14T16:58:06.001Z,99993.91
2022-10-14T17:00:32.855Z,99987.06
2022-10-14T17:02:59.380Z,99993.31
2022-10-14T17:05:27.074Z,99992.84
2022-10-14T17:07:53.816Z,99993.22
2022-10-14T17:10:21.424Z,99990.44
2022-10-14T17:12:48.384Z,99987.97
2022-10-14T17:15:15.069Z,99991.91
2022-10-14T17:17:42.817Z,99990.31
2022-10-14T17:20:09.922Z,99987.09
2022-10-14T17:22:36.947Z,99996.56
2022-10-14T17:25:05.134Z,99994.94
2022-10-14T17:27:31.906Z,100002.47
2022-10-14T17:29:59.199Z,99995.66
2022-10-14T17:32:28.126Z,99994.03
2022-10-14T17:34:54.908Z,99996.81
2022-10-14T17:37:22.186Z,99999.59
2022-10-14T17:39:49.008Z,99997.97
2022-10-14T17:42:15.658Z,99997.16
2022-10-14T17:44:43.733Z,99997.53
2022-10-14T17:47:11.192Z,99999.13
2022-10-14T17:49:37.882Z,100006.31
2022-10-14T17:52:06.189Z,100002.28
2022-10-14T17:54:32.873Z,100010.25
2022-10-14T17:56:59.489Z,100002.28
2022-10-14T17:59:26.050Z,100004.25
2022-10-14T18:02:08.111Z,100004.25
2022-10-14T18:04:35.026Z,99998.69
2022-10-14T18:07:01.865Z,100006.22
2022-10-14T18:09:28.409Z,100001.09
2022-10-14T18:12:10.789Z,99993.47
2022-10-14T18:14:38.933Z,99995.44
2022-10-14T18:17:05.752Z,99996.59
2022-10-14T18:19:32.783Z,100002.59
2022-10-14T18:22:00.318Z,99992.28
2022-10-14T18:24:27.129Z,99989.97
2022-10-14T18:26:53.798Z,100001.47
2022-10-14T18:29:20.843Z,100003.44
2022-10-14T18:34:25.504Z,99986.59
2022-10-14T18:36:52.246Z,99985.81
2022-10-14T18:39:20.379Z,99981.03
2022-10-14T18:41:47.384Z,99988.25
2022-10-14T18:44:14.493Z,99984.31
2022-10-14T18:46:41.307Z,99990.22
2022-10-14T18:49:10.287Z,99993.81
2022-10-14T18:51:39.296Z,99994.16
2022-10-14T18:54:28.123Z,99985.34
2022-10-14T18:56:55.683Z,99979.44
2022-10-14T18:59:23.602Z,99990.91
2022-10-14T19:01:53.226Z,99988.94
2022-10-14T19:04:22.239Z,99986.59
2022-10-14T19:06:49.793Z,99979.44
2022-10-14T19:09:19.469Z,99980.25
2022-10-14T19:11:47.874Z,99975.47
2022-10-14T19:14:14.670Z,99969.91
2022-10-14T19:16:41.654Z,99976.66
2022-10-14T19:19:15.194Z,99960.31
2022-10-14T19:21:43.586Z,99961.13
2022-10-14T19:24:11.650Z,99959.97
2022-10-14T19:26:41.709Z,99953.13
2022-10-14T19:29:11.727Z,99961.94
2022-10-14T19:31:39.842Z,99965.06
2022-10-14T19:34:08.840Z,99954.28
2022-10-14T19:36:39.512Z,99958.06
2022-10-14T19:39:08.733Z,99949.84
2022-10-14T19:41:43.153Z,99947.31
2022-10-14T19:44:11.769Z,99953.56
2022-10-14T19:46:38.740Z,99950.41
2022-10-14T19:49:06.503Z,99943.97
2022-10-14T19:51:34.792Z,99953.44
2022-10-14T19:54:01.871Z,99946.25
2022-10-14T19:56:29.518Z,99933.53
2022-10-14T19:58:58.283Z,99938.28
2022-10-14T20:01:28.281Z,99935.81
2022-10-14T20:03:55.494Z,99941.38
2022-10-14T20:06:23.522Z,99926.34
2022-10-14T20:08:50.275Z,99920.75
2022-10-14T20:11:19.849Z,99924.69
2022-10-14T20:13:47.090Z,99920.75
2022-10-14T20:16:14.542Z,99926.34
2022-10-14T20:18:41.923Z,99925.50
2022-10-14T20:21:11.673Z,99935.81
2022-10-14T20:23:47.929Z,99942.22
2022-10-14T20:26:19.649Z,99950.22
2022-10-14T20:28:47.628Z,99939.88
2022-10-14T20:31:20.405Z,99938.59
2022-10-14T20:33:47.317Z,99925.50
2022-10-14T20:36:19.966Z,99925.06
2022-10-14T20:38:50.122Z,99920.75
2022-10-14T20:41:22.709Z,99914.38
2022-10-14T20:43:50.117Z,99916.03
2022-10-14T20:46:17.279Z,99917.28
2022-10-14T20:48:44.338Z,99921.59
2022-10-14T20:51:13.542Z,99922.41
2022-10-14T20:56:11.278Z,99918.81
2022-10-14T20:58:38.571Z,99926.34
2022-10-14T21:01:09.234Z,99924.38
2022-10-14T21:03:36.387Z,99939.09
2022-10-14T21:06:06.197Z,99928.75
2022-10-14T21:08:33.044Z,99927.97
2022-10-14T21:11:05.033Z,99925.19
2022-10-14T21:13:33.569Z,99930.75
2022-10-14T21:16:00.665Z,99936.75
2022-10-14T21:18:27.753Z,99942.31
2022-10-14T21:20:54.405Z,99937.91
2022-10-14T21:23:21.154Z,99932.00
2022-10-14T21:25:56.159Z,99937.91
2022-10-14T21:28:23.366Z,99935.94
2022-10-14T21:30:50.000Z,99938.41
2022-10-14T21:33:16.746Z,99941.50
2022-10-14T21:35:43.330Z,99950.22
2022-10-14T21:38:09.949Z,99951.81
2022-10-14T21:40:36.801Z,99951.75
2022-10-14T21:43:03.517Z,99946.25
2022-10-14T21:45:30.131Z,99933.16
2022-10-14T21:50:28.480Z,99925.19
2022-10-14T21:52:55.068Z,99925.19
2022-10-14T21:55:21.679Z,99930.38
2022-10-14T21:57:48.420Z,99935.13
2022-10-14T22:00:15.099Z,99927.97
2022-10-14T22:02:41.624Z,99932.00
2022-10-14T22:05:08.461Z,99932.34
2022-10-14T22:07:35.491Z,99931.91
2022-10-14T22:10:02.261Z,99925.19
2022-10-14T22:12:29.917Z,99928.75
2022-10-14T22:14:56.523Z,99930.25
2022-10-14T22:17:23.328Z,99933.53
2022-10-14T22:19:50.561Z,99932.34
2022-10-14T22:22:17.166Z,99931.91
2022-10-14T22:24:43.785Z,99922.41
2022-10-14T22:27:10.452Z,99926.09
2022-10-14T22:29:37.805Z,99925.63
2022-10-14T22:32:04.653Z,99916.13
2022-10-14T22:34:31.363Z,99919.25
2022-10-14T22:36:59.607Z,99917.28
2022-10-14T22:39:27.144Z,99910.91
2022-10-14T22:41:54.061Z,99911.34
2022-10-14T22:44:20.681Z,99918.81
2022-10-14T22:46:47.299Z,99917.97
2022-10-14T22:49:13.967Z,99921.22
2022-10-14T22:51:40.989Z,99915.31
2022-10-14T22:54:08.037Z,99905.72
2022-10-14T22:56:34.761Z,99910.44
2022-10-14T22:59:11.739Z,99918.44
2022-10-14T23:01:39.554Z,99914.94
2022-10-14T23:04:06.266Z,99923.06
2022-10-14T23:06:32.873Z,99915.50
2022-10-14T23:09:02.840Z,99921.19
2022-10-14T23:11:30.946Z,99921.06
2022-10-14T23:14:00.198Z,99909.88
2022-10-14T23:16:29.850Z,99915.06
2022-10-14T23:18:58.307Z,99920.19
2022-10-14T23:21:30.763Z,99909.16
2022-10-14T23:23:59.875Z,99903.81
2022-10-14T23:26:31.539Z,99898.63
2022-10-14T23:28:59.478Z,99899.06
2022-10-14T23:31:29.152Z,99905.00
2022-10-14T23:33:58.641Z,99913.78
2022-10-14T23:36:25.484Z,99902.22
2022-10-14T23:38:55.278Z,99904.31
2022-10-14T23:41:23.149Z,99912.97
2022-10-14T23:43:51.534Z,99908.50
2022-10-14T23:46:19.349Z,99910.09
2022-10-14T23:48:55.338Z,99912.53
2022-10-14T23:51:32.742Z,99910.56
2022-10-14T23:53:59.382Z,99903.38
2022-10-14T23:56:26.032Z,99910.56
2022-10-14T23:58:52.727Z,99905.78
